Time;durP1;ratioP1;P1;durP2;ratioP2;P2;SDS_P1;SDS_P2;PMS_P1;PMS_P2;Temp;Humidity;BMP_temperature;BMP_pressure;BME280_temperature;BME280_humidity;BME280_pressure;Samples;Min_cycle;Max_cycle;Signal;HPM_P1;HPM_P2
2023/09/18 00:00:22;;;;;;;17.13;8.10;;;;;;;-144.57;100.00;62443.72;4857966;29;20046;-61
2023/09/18 00:02:48;;;;;;;12.15;7.65;;;;;;;-144.57;100.00;62443.72;4857956;29;20587;-60
2023/09/18 00:05:15;;;;;;;10.85;7.97;;;;;;;-144.57;100.00;62443.72;4859170;29;20037;-60
2023/09/18 00:07:42;;;;;;;9.75;7.63;;;;;;;-144.57;100.00;62443.72;4859411;29;20089;-60
2023/09/18 00:10:10;;;;;;;13.68;7.28;;;;;;;-144.57;100.00;62443.72;4859412;29;20125;-60
2023/09/18 00:12:35;;;;;;;10.38;7.47;;;;;;;-144.57;100.00;62443.72;4859392;29;20053;-61
2023/09/18 00:15:01;;;;;;;11.77;7.95;;;;;;;-144.57;100.00;62443.72;4859142;29;20147;-61
2023/09/18 00:17:30;;;;;;;11.70;7.93;;;;;;;-144.57;100.00;62443.72;4858755;29;20508;-60
2023/09/18 00:19:56;;;;;;;10.13;7.70;;;;;;;-144.57;100.00;62443.72;4857959;29;20132;-61
2023/09/18 00:22:22;;;;;;;9.85;6.93;;;;;;;-144.57;100.00;62443.72;4859326;29;20049;-60
2023/09/18 00:24:47;;;;;;;10.93;7.60;;;;;;;-144.57;100.00;62443.72;4859234;29;20046;-60
2023/09/18 00:27:13;;;;;;;13.32;8.10;;;;;;;-144.57;100.00;62443.72;4857740;29;20539;-59
2023/09/18 00:29:39;;;;;;;12.63;7.45;;;;;;;-144.57;100.00;62443.72;4859285;29;20045;-59
2023/09/18 00:32:06;;;;;;;12.52;7.93;;;;;;;-144.57;100.00;62443.72;4857966;29;20124;-59
2023/09/18 00:34:32;;;;;;;10.52;7.57;;;;;;;-144.57;100.00;62443.72;4858848;29;20049;-60
2023/09/18 00:36:59;;;;;;;11.50;7.60;;;;;;;-144.57;100.00;62443.72;4827297;29;20056;-60
2023/09/18 00:39:26;;;;;;;10.60;7.18;;;;;;;-144.57;100.00;62443.72;4859199;29;20192;-60
2023/09/18 00:41:54;;;;;;;9.07;6.53;;;;;;;-144.57;100.00;62443.72;4857765;29;20504;-61
2023/09/18 00:44:21;;;;;;;9.50;6.60;;;;;;;-144.57;100.00;62443.72;4858941;29;20145;-61
2023/09/18 00:46:48;;;;;;;9.98;7.43;;;;;;;-144.57;100.00;62443.72;4859159;29;20057;-60
2023/09/18 00:49:17;;;;;;;10.02;7.13;;;;;;;-144.57;100.00;62443.72;4858962;29;20057;-61
2023/09/18 00:51:43;;;;;;;12.77;6.70;;;;;;;-144.57;100.00;62443.72;4842597;29;20049;-60
2023/09/18 00:54:10;;;;;;;12.38;7.20;;;;;;;-144.57;100.00;62443.72;4859094;29;20045;-61
2023/09/18 00:56:39;;;;;;;14.32;7.22;;;;;;;-144.57;100.00;62443.72;4857990;29;20056;-58
2023/09/18 00:59:07;;;;;;;12.23;7.63;;;;;;;-144.57;100.00;62443.72;4857419;29;20408;-60
2023/09/18 01:01:34;;;;;;;10.27;7.25;;;;;;;-144.57;100.00;62443.72;4857729;29;20058;-61
2023/09/18 01:03:59;;;;;;;12.88;7.30;;;;;;;-144.57;100.00;62443.72;4861112;29;20098;-60
2023/09/18 01:06:30;;;;;;;9.25;6.47;;;;;;;-144.57;100.00;62443.72;4860755;29;20142;-61
2023/09/18 01:08:56;;;;;;;;;;;;;;;-144.57;100.00;62443.72;4861637;29;20077;-60
2023/09/18 01:11:32;;;;;;;10.73;6.07;;;;;;;-144.57;100.00;62443.72;4845605;29;19975;-60
2023/09/18 01:14:29;;;;;;;11.38;6.82;;;;;;;-144.57;100.00;62443.72;4845745;29;20057;-60
2023/09/18 01:17:01;;;;;;;9.80;6.47;;;;;;;-144.57;100.00;62443.72;4815048;29;20451;-60
2023/09/18 01:19:41;;;;;;;8.35;6.32;;;;;;;-144.57;100.00;62443.72;4862252;29;20077;-59
2023/09/18 01:22:09;;;;;;;10.45;6.22;;;;;;;-144.57;100.00;62443.72;4862422;29;20057;-59
2023/09/18 01:24:37;;;;;;;8.35;6.07;;;;;;;-144.57;100.00;62443.72;4845437;29;20041;-61
2023/09/18 01:27:06;;;;;;;9.35;6.75;;;;;;;-144.57;100.00;62443.72;4862026;29;20092;-59
2023/09/18 01:29:32;;;;;;;9.00;6.70;;;;;;;-144.57;100.00;62443.72;4860790;29;20073;-59
2023/09/18 01:31:58;;;;;;;11.85;6.63;;;;;;;-144.57;100.00;62443.72;4860816;29;20088;-60
2023/09/18 01:34:33;;;;;;;11.07;6.38;;;;;;;-144.57;100.00;62443.72;4861968;29;20046;-60
2023/09/18 01:37:00;;;;;;;8.15;6.25;;;;;;;-144.57;100.00;62443.72;4861811;29;20049;-59
2023/09/18 01:39:30;;;;;;;9.35;5.95;;;;;;;-144.57;100.00;62443.72;4861245;29;20127;-60
2023/09/18 01:42:03;;;;;;;9.15;6.32;;;;;;;-144.57;100.00;62443.72;4860485;29;20101;-60
2023/09/18 01:44:30;;;;;;;10.20;6.20;;;;;;;-144.57;100.00;62443.72;4861963;29;20080;-59
2023/09/18 01:47:01;;;;;;;9.75;5.93;;;;;;;-144.57;100.00;62443.72;4860373;29;20088;-61
2023/09/18 01:49:37;;;;;;;8.88;5.90;;;;;;;-144.57;100.00;62443.72;4860234;29;20140;-60
2023/09/18 01:52:04;;;;;;;9.25;5.93;;;;;;;-144.57;100.00;62443.72;4861102;29;20135;-60
2023/09/18 01:54:31;;;;;;;8.90;5.90;;;;;;;-144.57;100.00;62443.72;4861563;29;20041;-60
2023/09/18 01:56:56;;;;;;;8.82;6.57;;;;;;;-144.57;100.00;62443.72;4859879;29;20522;-61
2023/09/18 01:59:23;;;;;;;9.70;6.40;;;;;;;-144.57;100.00;62443.72;4860294;29;20144;-61
2023/09/18 02:01:50;;;;;;;9.25;6.50;;;;;;;-144.57;100.00;62443.72;4844777;29;20072;-60
2023/09/18 02:04:17;;;;;;;8.88;6.38;;;;;;;-144.57;100.00;62443.72;4861189;29;20041;-61
2023/09/18 02:06:46;;;;;;;8.50;5.97;;;;;;;-144.57;100.00;62443.72;4860279;29;20086;-61
2023/09/18 02:09:12;;;;;;;8.60;6.18;;;;;;;-144.57;100.00;62443.72;4860922;29;20056;-60
2023/09/18 02:11:42;;;;;;;8.38;6.35;;;;;;;-144.57;100.00;62443.72;4844680;29;20049;-61
2023/09/18 02:14:09;;;;;;;7.45;5.93;;;;;;;-144.57;100.00;62443.72;4858811;29;20132;-61
2023/09/18 02:16:41;;;;;;;8.95;5.88;;;;;;;-144.57;100.00;62443.72;4860064;29;20045;-60
2023/09/18 02:19:08;;;;;;;7.80;6.45;;;;;;;-144.57;100.00;62443.72;4859942;29;20419;-59
2023/09/18 02:21:36;;;;;;;8.48;6.53;;;;;;;-144.57;100.00;62443.72;4860020;29;20503;-60
2023/09/18 02:24:02;;;;;;;7.70;5.50;;;;;;;-144.57;100.00;62443.72;4860986;29;20052;-61
2023/09/18 02:26:30;;;;;;;9.70;6.10;;;;;;;-144.57;100.00;62443.72;4859745;29;20050;-61
2023/09/18 02:28:59;;;;;;;9.73;5.97;;;;;;;-144.57;100.00;62443.72;4844450;29;20056;-59
2023/09/18 02:31:25;;;;;;;8.43;5.82;;;;;;;-144.57;100.00;62443.72;4859794;29;20049;-60
2023/09/18 02:33:51;;;;;;;9.05;6.00;;;;;;;-144.57;100.00;62443.72;4860864;29;20526;-60
2023/09/18 02:36:17;;;;;;;6.43;5.53;;;;;;;-144.57;100.00;62443.72;4860948;29;20057;-61
2023/09/18 02:38:43;;;;;;;9.73;6.25;;;;;;;-144.57;100.00;62443.72;4859425;29;20045;-60
2023/09/18 02:41:09;;;;;;;8.25;6.03;;;;;;;-144.57;100.00;62443.72;4859600;29;20045;-61
2023/09/18 02:43:37;;;;;;;6.65;5.53;;;;;;;-144.57;100.00;62443.72;4844192;29;20078;-60
2023/09/18 02:46:05;;;;;;;7.95;6.35;;;;;;;-144.57;100.00;62443.72;4859508;29;20077;-60
2023/09/18 02:48:31;;;;;;;9.50;6.30;;;;;;;-144.57;100.00;62443.72;4843539;29;20500;-59
2023/09/18 02:51:02;;;;;;;8.05;6.35;;;;;;;-144.57;100.00;62443.72;4843806;29;20128;-59
2023/09/18 02:53:28;;;;;;;9.07;6.18;;;;;;;-144.57;100.00;62443.72;4844003;29;20082;-60
2023/09/18 02:55:57;;;;;;;10.20;7.05;;;;;;;-144.57;100.00;62443.72;4859268;29;20045;-59
2023/09/18 02:58:25;;;;;;;8.88;6.07;;;;;;;-144.57;100.00;62443.72;4858870;29;20439;-60
2023/09/18 03:00:55;;;;;;;9.68;6.40;;;;;;;-144.57;100.00;62443.72;4843891;29;20053;-60
2023/09/18 03:03:21;;;;;;;8.85;5.97;;;;;;;-144.57;100.00;62443.72;4858756;29;20080;-59
2023/09/18 03:05:48;;;;;;;11.43;6.75;;;;;;;-144.57;100.00;62443.72;4843298;29;20101;-60
2023/09/18 03:08:15;;;;;;;10.65;6.43;;;;;;;-144.57;100.00;62443.72;4859065;29;20054;-60
2023/09/18 03:10:42;;;;;;;8.65;5.95;;;;;;;-144.57;100.00;62443.72;4858993;29;20109;-61
2023/09/18 03:13:10;;;;;;;9.60;6.60;;;;;;;-144.57;100.00;62443.72;4858596;29;20568;-60
2023/09/18 03:15:37;;;;;;;9.48;6.38;;;;;;;-144.57;100.00;62443.72;4858992;29;20057;-59
2023/09/18 03:18:04;;;;;;;8.85;6.65;;;;;;;-144.57;100.00;62443.72;4858797;29;20057;-60
2023/09/18 03:20:31;;;;;;;9.18;6.63;;;;;;;-144.57;100.00;62443.72;4843361;29;20113;-60
2023/09/18 03:22:59;;;;;;;9.95;6.70;;;;;;;-144.57;100.00;62443.72;4858860;29;20050;-61
2023/09/18 03:25:25;;;;;;;9.80;6.63;;;;;;;-144.57;100.00;62443.72;4858401;29;20094;-60
2023/09/18 03:27:52;;;;;;;9.63;6.50;;;;;;;-144.57;100.00;62443.72;4842313;29;20364;-61
2023/09/18 03:30:19;;;;;;;8.88;6.50;;;;;;;-144.57;100.00;62443.72;4858741;29;20526;-60
2023/09/18 03:32:45;;;;;;;10.40;6.38;;;;;;;-144.57;100.00;62443.72;4858760;29;20076;-60
2023/09/18 03:35:18;;;;;;;9.20;6.13;;;;;;;-144.57;100.00;62443.72;4858424;29;20503;-60
2023/09/18 03:37:49;;;;;;;8.70;5.93;;;;;;;-144.57;100.00;62443.72;4858267;29;20507;-60
2023/09/18 03:40:17;;;;;;;9.90;6.53;;;;;;;-144.57;100.00;62443.72;4857793;29;20085;-59
2023/09/18 03:42:42;;;;;;;7.82;6.20;;;;;;;-144.57;100.00;62443.72;4859350;29;20140;-61
2023/09/18 03:45:09;;;;;;;8.20;5.68;;;;;;;-144.57;100.00;62443.72;4857500;29;20128;-61
2023/09/18 03:47:36;;;;;;;8.88;6.60;;;;;;;-144.57;100.00;62443.72;4858053;29;20049;-60
2023/09/18 03:50:02;;;;;;;10.55;6.30;;;;;;;-144.57;100.00;62443.72;4859624;29;20484;-61
2023/09/18 03:52:31;;;;;;;7.95;6.05;;;;;;;-144.57;100.00;62443.72;4858082;29;20148;-59
2023/09/18 03:54:57;;;;;;;9.32;6.30;;;;;;;-144.57;100.00;62443.72;4842887;29;20472;-61
2023/09/18 03:57:23;;;;;;;10.40;6.55;;;;;;;-144.57;100.00;62443.72;4859022;29;20050;-61
2023/09/18 03:59:49;;;;;;;8.68;5.57;;;;;;;-144.57;100.00;62443.72;4858008;29;20539;-60
2023/09/18 04:02:15;;;;;;;10.10;7.35;;;;;;;-144.57;100.00;62443.72;4857764;29;20065;-60
2023/09/18 04:04:40;;;;;;;9.95;6.53;;;;;;;-144.57;100.00;62443.72;4859476;29;20056;-61
2023/09/18 04:07:08;;;;;;;8.60;6.32;;;;;;;-144.57;100.00;62443.72;4858209;29;20045;-60
2023/09/18 04:09:34;;;;;;;12.70;6.75;;;;;;;-144.57;100.00;62443.72;4857993;29;20049;-60
2023/09/18 04:12:01;;;;;;;9.30;6.30;;;;;;;-144.57;100.00;62443.72;4857806;29;20480;-61
2023/09/18 04:14:27;;;;;;;9.15;6.28;;;;;;;-144.57;100.00;62443.72;4842672;29;20041;-61
2023/09/18 04:16:53;;;;;;;8.10;6.32;;;;;;;-144.57;100.00;62443.72;4858890;29;20471;-63
2023/09/18 04:19:19;;;;;;;12.15;6.13;;;;;;;-144.57;100.00;62443.72;4859172;29;20049;-60
2023/09/18 04:21:44;;;;;;;8.82;5.80;;;;;;;-144.57;100.00;62443.72;4857929;29;20041;-61
2023/09/18 04:24:10;;;;;;;7.93;5.97;;;;;;;-144.57;100.00;62443.72;4857781;29;20084;-60
2023/09/18 04:26:37;;;;;;;8.63;6.38;;;;;;;-144.57;100.00;62443.72;4858123;29;20071;-60
2023/09/18 04:29:03;;;;;;;10.23;6.13;;;;;;;-144.57;100.00;62443.72;4857879;29;20469;-60
2023/09/18 04:31:31;;;;;;;10.30;6.30;;;;;;;-144.57;100.00;62443.72;4856615;29;20080;-62
2023/09/18 04:33:57;;;;;;;8.77;6.40;;;;;;;-144.57;100.00;62443.72;4842638;29;20101;-59
2023/09/18 04:36:24;;;;;;;8.00;6.45;;;;;;;-144.57;100.00;62443.72;4842450;29;20054;-62
2023/09/18 04:38:50;;;;;;;8.13;5.63;;;;;;;-144.57;100.00;62443.72;4860910;29;20076;-60
2023/09/18 04:41:16;;;;;;;11.15;6.57;;;;;;;-144.57;100.00;62443.72;4861310;29;20431;-61
2023/09/18 04:43:43;;;;;;;8.18;6.18;;;;;;;-144.57;100.00;62443.72;4862671;29;20065;-60
2023/09/18 04:46:08;;;;;;;8.00;6.63;;;;;;;-144.57;100.00;62443.72;4861629;29;20045;-61
2023/09/18 04:48:35;;;;;;;8.75;6.78;;;;;;;-144.57;100.00;62443.72;4841715;29;20148;-62
2023/09/18 04:51:03;;;;;;;8.73;7.18;;;;;;;-144.57;100.00;62443.72;4842841;29;20133;-61
2023/09/18 04:53:30;;;;;;;10.05;6.53;;;;;;;-144.57;100.00;62443.72;4842847;29;20535;-60
2023/09/18 04:55:57;;;;;;;11.77;7.07;;;;;;;-144.57;100.00;62443.72;4852543;29;20045;-60
2023/09/18 04:58:23;;;;;;;12.57;7.22;;;;;;;-144.57;100.00;62443.72;4861123;29;20049;-61
2023/09/18 05:00:55;;;;;;;11.70;7.20;;;;;;;-144.57;100.00;62443.72;4845943;29;20523;-61
2023/09/18 05:03:23;;;;;;;12.07;6.95;;;;;;;-144.57;100.00;62443.72;4861299;29;20062;-57
2023/09/18 05:05:53;;;;;;;15.70;7.40;;;;;;;-144.57;100.00;62443.72;4846088;29;20046;-61
2023/09/18 05:08:19;;;;;;;12.07;7.28;;;;;;;-144.57;100.00;62443.72;4862061;29;20125;-61
2023/09/18 05:10:46;;;;;;;10.55;7.00;;;;;;;-144.57;100.00;62443.72;4860891;29;20054;-61
2023/09/18 05:13:12;;;;;;;14.52;7.13;;;;;;;-144.57;100.00;62443.72;4862124;29;20049;-61
2023/09/18 05:15:38;;;;;;;11.73;6.72;;;;;;;-144.57;100.00;62443.72;4860901;29;20492;-62
2023/09/18 05:18:04;;;;;;;14.57;6.85;;;;;;;-144.57;100.00;62443.72;4860566;29;20414;-64
2023/09/18 05:20:31;;;;;;;10.77;6.78;;;;;;;-144.57;100.00;62443.72;4860119;29;20045;-61
2023/09/18 05:22:58;;;;;;;9.40;6.50;;;;;;;-144.57;100.00;62443.72;4861846;29;20045;-62
2023/09/18 05:25:27;;;;;;;9.43;6.22;;;;;;;-144.57;100.00;62443.72;4860831;29;20044;-62
2023/09/18 05:27:57;;;;;;;11.13;6.50;;;;;;;-144.57;100.00;62443.72;4861915;29;20050;-61
2023/09/18 05:30:29;;;;;;;11.27;6.35;;;;;;;-144.57;100.00;62443.72;4860169;29;20049;-61
2023/09/18 05:32:55;;;;;;;15.30;6.13;;;;;;;-144.57;100.00;62443.72;4860425;29;20140;-61
2023/09/18 05:35:23;;;;;;;10.90;6.40;;;;;;;-144.57;100.00;62443.72;4860639;29;20085;-61
2023/09/18 05:37:50;;;;;;;10.35;6.47;;;;;;;-144.57;100.00;62443.72;4860196;29;20050;-61
2023/09/18 05:40:16;;;;;;;7.65;5.78;;;;;;;-144.57;100.00;62443.72;4861732;29;20061;-60
2023/09/18 05:42:43;;;;;;;8.18;5.93;;;;;;;-144.57;100.00;62443.72;4861472;29;20042;-61
2023/09/18 05:45:10;;;;;;;8.50;5.97;;;;;;;-144.57;100.00;62443.72;4869327;29;20049;-59
2023/09/18 05:47:38;;;;;;;9.75;6.05;;;;;;;-144.57;100.00;62443.72;4832374;29;20049;-61
2023/09/18 05:50:09;;;;;;;9.13;5.88;;;;;;;-144.57;100.00;62443.72;4879720;29;20463;-61
2023/09/18 05:52:35;;;;;;;10.18;5.68;;;;;;;-144.57;100.00;62443.72;4880168;29;20423;-60
2023/09/18 05:55:02;;;;;;;12.73;6.53;;;;;;;-144.57;100.00;62443.72;4876667;29;20056;-62
2023/09/18 05:57:30;;;;;;;8.93;5.65;;;;;;;-144.57;100.00;62443.72;4861480;29;20064;-60
2023/09/18 05:59:56;;;;;;;17.10;6.07;;;;;;;-144.57;100.00;62443.72;4868656;29;20052;-61
2023/09/18 06:02:22;;;;;;;8.00;6.00;;;;;;;-144.57;100.00;62443.72;4878300;29;20061;-61
2023/09/18 06:04:49;;;;;;;7.65;5.50;;;;;;;-144.57;100.00;62443.72;4879635;29;20514;-60
2023/09/18 06:07:15;;;;;;;11.93;6.20;;;;;;;-144.57;100.00;62443.72;4879126;29;20048;-60
2023/09/18 06:09:41;;;;;;;13.35;6.47;;;;;;;-144.57;100.00;62443.72;4877717;29;20041;-61
2023/09/18 06:12:09;;;;;;;8.93;6.07;;;;;;;-144.57;100.00;62443.72;4879844;29;20052;-58
2023/09/18 06:14:37;;;;;;;8.05;5.72;;;;;;;-144.57;100.00;62443.72;4862915;29;20037;-60
2023/09/18 06:17:07;;;;;;;10.70;6.43;;;;;;;-144.57;100.00;62443.72;4879380;29;20040;-60
2023/09/18 06:19:35;;;;;;;16.00;6.85;;;;;;;-144.57;100.00;62443.72;4846105;29;20325;-60
2023/09/18 06:22:01;;;;;;;9.45;6.70;;;;;;;-144.57;100.00;62443.72;4878210;29;20734;-62
2023/09/18 06:24:27;;;;;;;9.80;6.38;;;;;;;-144.57;100.00;62443.72;4879126;29;20089;-61
2023/09/18 06:26:54;;;;;;;10.45;6.10;;;;;;;-144.57;100.00;62443.72;4879392;29;20049;-60
2023/09/18 06:29:19;;;;;;;9.25;6.30;;;;;;;-144.57;100.00;62443.72;4878874;29;20440;-60
2023/09/18 06:31:46;;;;;;;9.15;6.82;;;;;;;-144.57;100.00;62443.72;4879200;29;20055;-60
2023/09/18 06:34:12;;;;;;;13.05;6.13;;;;;;;-144.57;100.00;62443.72;4879195;29;20045;-60
2023/09/18 06:36:38;;;;;;;10.93;6.10;;;;;;;-144.57;100.00;62443.72;4877814;29;20060;-60
2023/09/18 06:39:04;;;;;;;13.57;6.60;;;;;;;-144.57;100.00;62443.72;4879021;29;20041;-60
2023/09/18 06:41:29;;;;;;;10.52;6.15;;;;;;;-144.57;100.00;62443.72;4879279;29;20159;-60
2023/09/18 06:43:56;;;;;;;11.85;6.28;;;;;;;-144.57;100.00;62443.72;4877765;29;20049;-60
2023/09/18 06:46:22;;;;;;;11.13;6.28;;;;;;;-144.57;100.00;62443.72;4878905;29;20060;-61
2023/09/18 06:48:51;;;;;;;11.75;6.32;;;;;;;-144.57;100.00;62443.72;4878625;29;20061;-58
2023/09/18 06:51:17;;;;;;;8.60;6.15;;;;;;;-144.57;100.00;62443.72;4847166;29;20080;-60
2023/09/18 06:53:43;;;;;;;9.18;6.20;;;;;;;-144.57;100.00;62443.72;4878527;29;20041;-61
2023/09/18 06:56:09;;;;;;;10.77;6.88;;;;;;;-144.57;100.00;62443.72;4865880;29;20090;-61
2023/09/18 06:58:42;;;;;;;19.73;7.35;;;;;;;-144.57;100.00;62443.72;4859778;29;20053;-58
2023/09/18 07:01:15;;;;;;;11.35;6.93;;;;;;;-144.57;100.00;62443.72;4841086;29;20496;-60
2023/09/18 07:03:41;;;;;;;10.75;6.35;;;;;;;-144.57;100.00;62443.72;4877394;29;20108;-61
2023/09/18 07:06:07;;;;;;;9.27;6.47;;;;;;;-144.57;100.00;62443.72;4878373;29;20061;-62
2023/09/18 07:08:33;;;;;;;11.70;7.47;;;;;;;-144.57;100.00;62443.72;4877374;29;20507;-60
2023/09/18 07:10:59;;;;;;;12.55;6.72;;;;;;;-144.57;100.00;62443.72;4877466;29;20041;-60
2023/09/18 07:13:25;;;;;;;10.15;6.72;;;;;;;-144.57;100.00;62443.72;4876787;29;20586;-59
2023/09/18 07:15:51;;;;;;;9.65;6.90;;;;;;;-144.57;100.00;62443.72;4877385;29;20120;-61
2023/09/18 07:18:17;;;;;;;11.80;6.80;;;;;;;-144.57;100.00;62443.72;4862050;29;20088;-61
2023/09/18 07:20:46;;;;;;;13.05;7.90;;;;;;;-144.57;100.00;62443.72;4877147;29;20451;-61
2023/09/18 07:23:12;;;;;;;17.08;7.47;;;;;;;-144.57;100.00;62443.72;4878640;29;20049;-60
2023/09/18 07:25:38;;;;;;;11.15;7.68;;;;;;;-144.57;100.00;62443.72;4861591;29;20041;-61
2023/09/18 07:28:08;;;;;;;20.50;7.63;;;;;;;-144.57;100.00;62443.72;4877006;29;20057;-60
2023/09/18 07:30:35;;;;;;;11.70;8.43;;;;;;;-144.57;100.00;62443.72;4877962;29;20132;-61
2023/09/18 07:33:02;;;;;;;13.10;8.70;;;;;;;-144.57;100.00;62443.72;4861429;29;20053;-60
2023/09/18 07:35:27;;;;;;;22.77;10.13;;;;;;;-144.57;100.00;62443.72;4876933;29;20188;-61
2023/09/18 07:37:53;;;;;;;16.00;10.52;;;;;;;-144.57;100.00;62443.72;4876897;29;20135;-62
2023/09/18 07:40:19;;;;;;;13.63;8.45;;;;;;;-144.57;100.00;62443.72;4878075;29;20396;-62
2023/09/18 07:42:45;;;;;;;12.30;8.02;;;;;;;-144.57;100.00;62443.72;4876799;29;20057;-58
2023/09/18 07:45:11;;;;;;;12.43;7.65;;;;;;;-144.57;100.00;62443.72;4845994;29;20041;-60
2023/09/18 07:47:37;;;;;;;14.93;8.55;;;;;;;-144.57;100.00;62443.72;4877858;29;20052;-59
2023/09/18 07:50:04;;;;;;;11.93;7.80;;;;;;;-144.57;100.00;62443.72;4877705;29;20495;-59
2023/09/18 07:52:32;;;;;;;16.73;8.43;;;;;;;-144.57;100.00;62443.72;4876844;29;20144;-60
2023/09/18 07:54:58;;;;;;;10.48;7.63;;;;;;;-144.57;100.00;62443.72;4875354;29;20128;-60
2023/09/18 07:57:25;;;;;;;12.02;8.05;;;;;;;-144.57;100.00;62443.72;4859267;29;20061;-61
2023/09/18 07:59:51;;;;;;;10.32;7.65;;;;;;;-144.57;100.00;62443.72;4860309;29;20053;-64
2023/09/18 08:02:21;;;;;;;10.30;7.43;;;;;;;-144.57;100.00;62443.72;4878029;29;20052;-63
2023/09/18 08:04:47;;;;;;;15.23;12.98;;;;;;;-144.57;100.00;62443.72;4877827;29;20048;-60
2023/09/18 08:07:13;;;;;;;21.77;17.75;;;;;;;-144.57;100.00;62443.72;4877934;29;20570;-61
2023/09/18 08:09:39;;;;;;;20.42;17.73;;;;;;;-144.57;100.00;62443.72;4877735;29;20049;-59
2023/09/18 08:12:06;;;;;;;25.40;19.13;;;;;;;-144.57;100.00;62443.72;4876432;29;20045;-62
2023/09/18 08:14:35;;;;;;;24.85;18.15;;;;;;;-144.57;100.00;62443.72;4878024;29;20499;-60
2023/09/18 08:17:01;;;;;;;14.07;10.35;;;;;;;-144.57;100.00;62443.72;4854501;29;20053;-61
2023/09/18 08:19:27;;;;;;;12.38;10.02;;;;;;;-144.57;100.00;62443.72;4840678;29;20197;-60
2023/09/18 08:21:54;;;;;;;13.23;9.35;;;;;;;-144.57;100.00;62443.72;4876152;29;20457;-60
2023/09/18 08:24:21;;;;;;;14.25;9.68;;;;;;;-144.57;100.00;62443.72;4876033;29;20415;-62
2023/09/18 08:26:47;;;;;;;15.75;12.10;;;;;;;-144.57;100.00;62443.72;4877462;29;20045;-59
2023/09/18 08:29:13;;;;;;;11.10;8.90;;;;;;;-144.57;100.00;62443.72;4877640;29;20048;-60
2023/09/18 08:31:39;;;;;;;12.57;8.27;;;;;;;-144.57;100.00;62443.72;4876073;29;20076;-60
2023/09/18 08:34:04;;;;;;;11.07;8.45;;;;;;;-144.57;100.00;62443.72;4877451;29;20075;-61
2023/09/18 08:36:31;;;;;;;10.35;9.05;;;;;;;-144.57;100.00;62443.72;4877350;29;20049;-63
2023/09/18 08:38:57;;;;;;;12.80;8.52;;;;;;;-144.57;100.00;62443.72;4877219;29;20049;-60
2023/09/18 08:41:26;;;;;;;12.02;8.55;;;;;;;-144.57;100.00;62443.72;4860509;29;20415;-62
2023/09/18 08:43:59;;;;;;;13.60;9.75;;;;;;;-144.57;100.00;62443.72;4877360;29;20079;-61
2023/09/18 08:46:25;;;;;;;11.63;7.53;;;;;;;-144.57;100.00;62443.72;4877296;29;20619;-61
2023/09/18 08:48:51;;;;;;;9.57;8.18;;;;;;;-144.57;100.00;62443.72;4877217;29;20152;-61
2023/09/18 08:51:18;;;;;;;12.98;9.50;;;;;;;-144.57;100.00;62443.72;4876010;29;20133;-61
2023/09/18 08:53:44;;;;;;;17.80;11.82;;;;;;;-144.57;100.00;62443.72;4875428;29;20143;-62
2023/09/18 08:56:10;;;;;;;13.63;10.68;;;;;;;-144.57;100.00;62443.72;4845597;29;20046;-62
2023/09/18 08:58:39;;;;;;;16.17;13.88;;;;;;;-144.57;100.00;62443.72;4838991;29;20054;-60
2023/09/18 09:01:09;;;;;;;19.33;13.15;;;;;;;-144.57;100.00;62443.72;4862098;29;20538;-61
2023/09/18 09:03:39;;;;;;;;;;;;;;;-144.57;100.00;62443.72;4876348;29;20040;-60
2023/09/18 09:06:09;;;;;;;15.60;9.93;;;;;;;-144.57;100.00;62443.72;4875812;29;19931;-63
2023/09/18 09:08:35;;;;;;;13.00;9.48;;;;;;;-144.57;100.00;62443.72;4877462;29;20049;-61
2023/09/18 09:11:01;;;;;;;12.88;8.00;;;;;;;-144.57;100.00;62443.72;4875897;29;20045;-61
2023/09/18 09:13:27;;;;;;;10.77;8.20;;;;;;;-144.57;100.00;62443.72;4877407;29;20053;-60
2023/09/18 09:15:58;;;;;;;11.48;7.00;;;;;;;-144.57;100.00;62443.72;4870892;29;20406;-62
2023/09/18 09:18:26;;;;;;;10.10;7.55;;;;;;;-144.57;100.00;62443.72;4877246;29;20073;-61
2023/09/18 09:20:58;;;;;;;10.05;7.15;;;;;;;-144.57;100.00;62443.72;4875692;29;20049;-60
2023/09/18 09:23:25;;;;;;;9.70;6.93;;;;;;;-144.57;100.00;62443.72;4876939;29;20143;-61
2023/09/18 09:25:51;;;;;;;9.32;7.13;;;;;;;-144.57;100.00;62443.72;4880627;29;20044;-60
2023/09/18 09:28:29;;;;;;;10.23;7.65;;;;;;;-144.57;100.00;62443.72;4879083;29;20060;-61
2023/09/18 09:31:03;;;;;;;9.73;7.13;;;;;;;-144.57;100.00;62443.72;4879153;29;20547;-59
2023/09/18 09:33:29;;;;;;;10.43;7.43;;;;;;;-144.57;100.00;62443.72;4880705;29;20056;-60
2023/09/18 09:35:56;;;;;;;10.93;7.07;;;;;;;-144.57;100.00;62443.72;4879088;29;20049;-60
2023/09/18 09:38:29;;;;;;;9.10;6.30;;;;;;;-144.57;100.00;62443.72;4880095;29;20053;-61
2023/09/18 09:40:55;;;;;;;12.40;7.38;;;;;;;-144.57;100.00;62443.72;4878948;29;20072;-61
2023/09/18 09:43:21;;;;;;;12.50;7.70;;;;;;;-144.57;100.00;62443.72;4880400;29;20102;-61
2023/09/18 09:45:47;;;;;;;11.23;7.68;;;;;;;-144.57;100.00;62443.72;4880104;29;20036;-60
2023/09/18 09:48:13;;;;;;;12.00;6.95;;;;;;;-144.57;100.00;62443.72;4879982;29;20100;-60
2023/09/18 09:50:47;;;;;;;9.55;7.68;;;;;;;-144.57;100.00;62443.72;4879508;29;20128;-60
2023/09/18 09:53:15;;;;;;;10.73;7.50;;;;;;;-144.57;100.00;62443.72;4879961;29;20057;-61
2023/09/18 09:55:41;;;;;;;11.77;7.78;;;;;;;-144.57;100.00;62443.72;4872069;29;20424;-62
2023/09/18 09:58:08;;;;;;;9.05;7.05;;;;;;;-144.57;100.00;62443.72;4861237;29;20080;-61
2023/09/18 10:00:49;;;;;;;10.13;8.05;;;;;;;-144.57;100.00;62443.72;4868914;29;20060;-61
2023/09/18 10:03:18;;;;;;;9.82;7.85;;;;;;;-144.57;100.00;62443.72;4880089;29;20047;-60
2023/09/18 10:05:49;;;;;;;11.00;8.15;;;;;;;-144.57;100.00;62443.72;4879948;29;20045;-60
2023/09/18 10:08:19;;;;;;;12.05;8.20;;;;;;;-144.57;100.00;62443.72;4878501;29;20045;-61
2023/09/18 10:10:50;;;;;;;11.57;8.40;;;;;;;-144.57;100.00;62443.72;4879868;29;20048;-61
2023/09/18 10:13:19;;;;;;;11.32;8.32;;;;;;;-144.57;100.00;62443.72;4878364;29;20053;-61
2023/09/18 10:15:46;;;;;;;10.82;7.95;;;;;;;-144.57;100.00;62443.72;4879762;29;20044;-60
2023/09/18 10:18:44;;;;;;;11.88;9.00;;;;;;;-144.57;100.00;62443.72;4878157;29;20053;-60
2023/09/18 10:21:44;;;;;;;12.68;8.73;;;;;;;-144.57;100.00;62443.72;4877806;29;20067;-63
2023/09/18 10:24:16;;;;;;;12.73;9.95;;;;;;;-144.57;100.00;62443.72;4878322;29;20045;-57
2023/09/18 10:27:04;;;;;;;10.98;8.43;;;;;;;-144.57;100.00;62443.72;4879708;29;20049;-60
2023/09/18 10:29:32;;;;;;;12.02;8.80;;;;;;;-144.57;100.00;62443.72;4862792;29;20052;-60
2023/09/18 10:31:59;;;;;;;12.48;9.43;;;;;;;-144.57;100.00;62443.72;4877643;29;20515;-61
2023/09/18 10:34:25;;;;;;;13.95;10.25;;;;;;;-144.57;100.00;62443.72;4878659;29;20129;-60
2023/09/18 10:36:54;;;;;;;12.82;9.38;;;;;;;-144.57;100.00;62443.72;4878715;29;20616;-61
2023/09/18 10:39:29;;;;;;;10.50;8.20;;;;;;;-144.57;100.00;62443.72;4877506;29;20234;-60
2023/09/18 10:42:01;;;;;;;11.93;8.75;;;;;;;-144.57;100.00;62443.72;4862730;29;20045;-61
2023/09/18 10:44:28;;;;;;;12.38;8.43;;;;;;;-144.57;100.00;62443.72;4879280;29;20052;-61
2023/09/18 10:46:55;;;;;;;11.30;8.68;;;;;;;-144.57;100.00;62443.72;4877765;29;20145;-61
2023/09/18 10:49:21;;;;;;;12.43;8.55;;;;;;;-144.57;100.00;62443.72;4862047;29;20048;-61
2023/09/18 10:51:48;;;;;;;11.45;9.07;;;;;;;-144.57;100.00;62443.72;4877736;29;20052;-62
2023/09/18 10:54:21;;;;;;;12.07;8.68;;;;;;;-144.57;100.00;62443.72;4877786;29;20508;-61
2023/09/18 10:56:47;;;;;;;11.40;8.65;;;;;;;-144.57;100.00;62443.72;4862089;29;20053;-62
2023/09/18 10:59:15;;;;;;;11.38;8.32;;;;;;;-144.57;100.00;62443.72;4858969;29;20057;-59
2023/09/18 11:01:40;;;;;;;12.07;9.05;;;;;;;-144.57;100.00;62443.72;4876445;29;20511;-62
2023/09/18 11:04:09;;;;;;;10.95;8.43;;;;;;;-144.57;100.00;62443.72;4872340;29;20070;-62
2023/09/18 11:06:53;;;;;;;9.70;7.53;;;;;;;-144.57;100.00;62443.72;4875493;29;20080;-61